sensor_id;sensor_type;location;lat;lon;timestamp;P1;durP1;ratioP1;P2;durP2;ratioP2
11777;SDS011;5946;51.770;8.548;2023-04-25T00:01:16;20.83;;;8.13;;
11777;SDS011;5946;51.770;8.548;2023-04-25T00:03:42;18.27;;;7.67;;
11777;SDS011;5946;51.770;8.548;2023-04-25T00:06:08;16.43;;;7.40;;
11777;SDS011;5946;51.770;8.548;2023-04-25T00:08:34;22.33;;;8.00;;
11777;SDS011;5946;51.770;8.548;2023-04-25T00:11:00;20.07;;;7.50;;
11777;SDS011;5946;51.770;8.548;2023-04-25T00:13:26;17.10;;;8.40;;
11777;SDS011;5946;51.770;8.548;2023-04-25T00:15:52;16.30;;;7.07;;
11777;SDS011;5946;51.770;8.548;2023-04-25T00:18:18;21.63;;;7.90;;
11777;SDS011;5946;51.770;8.548;2023-04-25T00:20:45;18.07;;;7.20;;
11777;SDS011;5946;51.770;8.548;2023-04-25T00:23:11;25.13;;;8.33;;
11777;SDS011;5946;51.770;8.548;2023-04-25T00:25:37;20.97;;;7.83;;
11777;SDS011;5946;51.770;8.548;2023-04-25T00:28:03;23.13;;;7.77;;
11777;SDS011;5946;51.770;8.548;2023-04-25T00:30:29;20.97;;;8.13;;
11777;SDS011;5946;51.770;8.548;2023-04-25T00:32:55;17.53;;;7.83;;
11777;SDS011;5946;51.770;8.548;2023-04-25T00:35:21;17.23;;;7.43;;
11777;SDS011;5946;51.770;8.548;2023-04-25T00:37:47;19.83;;;7.63;;
11777;SDS011;5946;51.770;8.548;2023-04-25T00:40:13;18.47;;;8.07;;
11777;SDS011;5946;51.770;8.548;2023-04-25T00:42:39;22.43;;;8.10;;
11777;SDS011;5946;51.770;8.548;2023-04-25T00:45:06;22.43;;;8.80;;
11777;SDS011;5946;51.770;8.548;2023-04-25T00:47:32;26.30;;;9.33;;
11777;SDS011;5946;51.770;8.548;2023-04-25T00:49:59;23.33;;;9.13;;
11777;SDS011;5946;51.770;8.548;2023-04-25T00:52:25;17.50;;;8.50;;
11777;SDS011;5946;51.770;8.548;2023-04-25T00:54:51;21.03;;;9.97;;
11777;SDS011;5946;51.770;8.548;2023-04-25T00:57:17;21.80;;;9.67;;
11777;SDS011;5946;51.770;8.548;2023-04-25T00:59:44;28.03;;;10.40;;
11777;SDS011;5946;51.770;8.548;2023-04-25T01:02:11;26.47;;;10.70;;
11777;SDS011;5946;51.770;8.548;2023-04-25T01:04:38;26.80;;;10.73;;
11777;SDS011;5946;51.770;8.548;2023-04-25T01:07:04;27.53;;;11.50;;
11777;SDS011;5946;51.770;8.548;2023-04-25T01:09:30;19.73;;;11.13;;
11777;SDS011;5946;51.770;8.548;2023-04-25T01:11:59;26.30;;;12.17;;
11777;SDS011;5946;51.770;8.548;2023-04-25T01:14:26;29.77;;;12.13;;
11777;SDS011;5946;51.770;8.548;2023-04-25T01:16:52;26.93;;;12.40;;
11777;SDS011;5946;51.770;8.548;2023-04-25T01:19:18;26.40;;;12.27;;
11777;SDS011;5946;51.770;8.548;2023-04-25T01:21:44;27.47;;;13.20;;
11777;SDS011;5946;51.770;8.548;2023-04-25T01:24:10;25.90;;;13.20;;
11777;SDS011;5946;51.770;8.548;2023-04-25T01:26:36;27.93;;;13.60;;
11777;SDS011;5946;51.770;8.548;2023-04-25T01:29:06;27.80;;;13.43;;
11777;SDS011;5946;51.770;8.548;2023-04-25T01:31:32;33.93;;;13.77;;
11777;SDS011;5946;51.770;8.548;2023-04-25T01:34:00;26.57;;;13.90;;
11777;SDS011;5946;51.770;8.548;2023-04-25T01:36:26;32.33;;;14.93;;
11777;SDS011;5946;51.770;8.548;2023-04-25T01:38:52;27.90;;;14.27;;
11777;SDS011;5946;51.770;8.548;2023-04-25T01:41:18;26.97;;;14.20;;
11777;SDS011;5946;51.770;8.548;2023-04-25T01:43:44;26.47;;;14.10;;
11777;SDS011;5946;51.770;8.548;2023-04-25T01:46:11;35.00;;;15.13;;
11777;SDS011;5946;51.770;8.548;2023-04-25T01:48:37;30.37;;;14.87;;
11777;SDS011;5946;51.770;8.548;2023-04-25T01:51:03;28.67;;;14.73;;
11777;SDS011;5946;51.770;8.548;2023-04-25T01:53:29;26.97;;;14.27;;
11777;SDS011;5946;51.770;8.548;2023-04-25T01:55:55;32.47;;;15.27;;
11777;SDS011;5946;51.770;8.548;2023-04-25T01:58:21;32.97;;;15.63;;
11777;SDS011;5946;51.770;8.548;2023-04-25T02:00:47;35.60;;;14.80;;
11777;SDS011;5946;51.770;8.548;2023-04-25T02:03:13;27.53;;;15.07;;
11777;SDS011;5946;51.770;8.548;2023-04-25T02:05:39;31.20;;;15.57;;
11777;SDS011;5946;51.770;8.548;2023-04-25T02:08:06;33.30;;;15.90;;
11777;SDS011;5946;51.770;8.548;2023-04-25T02:10:32;29.63;;;15.37;;
11777;SDS011;5946;51.770;8.548;2023-04-25T02:12:58;28.20;;;15.77;;
11777;SDS011;5946;51.770;8.548;2023-04-25T02:15:24;31.33;;;16.03;;
11777;SDS011;5946;51.770;8.548;2023-04-25T02:17:50;31.77;;;16.27;;
11777;SDS011;5946;51.770;8.548;2023-04-25T02:20:23;30.07;;;15.07;;
11777;SDS011;5946;51.770;8.548;2023-04-25T02:22:49;31.23;;;16.77;;
11777;SDS011;5946;51.770;8.548;2023-04-25T02:25:15;32.47;;;16.17;;
11777;SDS011;5946;51.770;8.548;2023-04-25T02:27:41;33.57;;;17.00;;
11777;SDS011;5946;51.770;8.548;2023-04-25T02:30:08;37.33;;;18.43;;
11777;SDS011;5946;51.770;8.548;2023-04-25T02:32:34;37.07;;;16.57;;
11777;SDS011;5946;51.770;8.548;2023-04-25T02:35:00;38.17;;;17.37;;
11777;SDS011;5946;51.770;8.548;2023-04-25T02:37:30;35.50;;;18.13;;
11777;SDS011;5946;51.770;8.548;2023-04-25T02:39:56;37.33;;;18.30;;
11777;SDS011;5946;51.770;8.548;2023-04-25T02:42:22;36.50;;;18.60;;
11777;SDS011;5946;51.770;8.548;2023-04-25T02:44:48;42.30;;;19.87;;
11777;SDS011;5946;51.770;8.548;2023-04-25T02:47:14;46.13;;;20.47;;
11777;SDS011;5946;51.770;8.548;2023-04-25T02:49:40;42.20;;;20.33;;
11777;SDS011;5946;51.770;8.548;2023-04-25T02:52:06;42.07;;;20.93;;
11777;SDS011;5946;51.770;8.548;2023-04-25T02:54:32;43.57;;;20.33;;
11777;SDS011;5946;51.770;8.548;2023-04-25T02:56:58;50.30;;;22.53;;
11777;SDS011;5946;51.770;8.548;2023-04-25T02:59:24;43.83;;;21.10;;
11777;SDS011;5946;51.770;8.548;2023-04-25T03:01:50;45.20;;;21.73;;
11777;SDS011;5946;51.770;8.548;2023-04-25T03:04:16;41.00;;;20.83;;
11777;SDS011;5946;51.770;8.548;2023-04-25T03:06:43;46.90;;;20.60;;
11777;SDS011;5946;51.770;8.548;2023-04-25T03:09:09;41.43;;;20.50;;
11777;SDS011;5946;51.770;8.548;2023-04-25T03:11:36;42.17;;;20.83;;
11777;SDS011;5946;51.770;8.548;2023-04-25T03:14:02;39.63;;;19.47;;
11777;SDS011;5946;51.770;8.548;2023-04-25T03:16:28;42.67;;;20.63;;
11777;SDS011;5946;51.770;8.548;2023-04-25T03:18:54;39.57;;;20.23;;
11777;SDS011;5946;51.770;8.548;2023-04-25T03:21:20;37.67;;;20.13;;
11777;SDS011;5946;51.770;8.548;2023-04-25T03:23:46;39.57;;;19.40;;
11777;SDS011;5946;51.770;8.548;2023-04-25T03:26:12;43.10;;;19.83;;
11777;SDS011;5946;51.770;8.548;2023-04-25T03:28:38;41.20;;;18.87;;
11777;SDS011;5946;51.770;8.548;2023-04-25T03:31:05;39.23;;;18.13;;
11777;SDS011;5946;51.770;8.548;2023-04-25T03:33:31;43.70;;;18.93;;
11777;SDS011;5946;51.770;8.548;2023-04-25T03:35:57;39.63;;;17.90;;
11777;SDS011;5946;51.770;8.548;2023-04-25T03:38:23;36.63;;;18.67;;
11777;SDS011;5946;51.770;8.548;2023-04-25T03:40:49;42.90;;;19.10;;
11777;SDS011;5946;51.770;8.548;2023-04-25T03:43:15;41.20;;;18.03;;
11777;SDS011;5946;51.770;8.548;2023-04-25T03:45:42;40.50;;;17.57;;
11777;SDS011;5946;51.770;8.548;2023-04-25T03:48:08;35.53;;;17.67;;
11777;SDS011;5946;51.770;8.548;2023-04-25T03:50:34;37.93;;;17.37;;
11777;SDS011;5946;51.770;8.548;2023-04-25T03:53:00;37.87;;;16.50;;
11777;SDS011;5946;51.770;8.548;2023-04-25T03:55:26;35.17;;;15.70;;
11777;SDS011;5946;51.770;8.548;2023-04-25T03:57:52;44.47;;;16.97;;
11777;SDS011;5946;51.770;8.548;2023-04-25T04:00:18;40.70;;;17.13;;
11777;SDS011;5946;51.770;8.548;2023-04-25T04:02:44;37.97;;;16.77;;
11777;SDS011;5946;51.770;8.548;2023-04-25T04:05:10;41.77;;;16.83;;
11777;SDS011;5946;51.770;8.548;2023-04-25T04:07:35;37.23;;;16.37;;
11777;SDS011;5946;51.770;8.548;2023-04-25T04:10:11;37.13;;;16.00;;
11777;SDS011;5946;51.770;8.548;2023-04-25T04:12:37;39.70;;;15.20;;
11777;SDS011;5946;51.770;8.548;2023-04-25T04:15:04;37.47;;;15.93;;
11777;SDS011;5946;51.770;8.548;2023-04-25T04:17:30;35.47;;;14.00;;
11777;SDS011;5946;51.770;8.548;2023-04-25T04:19:56;40.70;;;14.03;;
11777;SDS011;5946;51.770;8.548;2023-04-25T04:22:22;33.40;;;14.20;;
11777;SDS011;5946;51.770;8.548;2023-04-25T04:24:49;36.43;;;13.83;;
11777;SDS011;5946;51.770;8.548;2023-04-25T04:27:15;33.83;;;14.10;;
11777;SDS011;5946;51.770;8.548;2023-04-25T04:29:43;40.17;;;13.13;;
11777;SDS011;5946;51.770;8.548;2023-04-25T04:32:09;36.17;;;13.10;;
11777;SDS011;5946;51.770;8.548;2023-04-25T04:34:35;33.70;;;12.50;;
11777;SDS011;5946;51.770;8.548;2023-04-25T04:37:02;46.00;;;12.73;;
11777;SDS011;5946;51.770;8.548;2023-04-25T04:39:28;31.63;;;12.13;;
11777;SDS011;5946;51.770;8.548;2023-04-25T04:41:54;32.23;;;12.90;;
11777;SDS011;5946;51.770;8.548;2023-04-25T04:44:20;35.57;;;12.23;;
11777;SDS011;5946;51.770;8.548;2023-04-25T04:46:46;34.83;;;11.93;;
11777;SDS011;5946;51.770;8.548;2023-04-25T04:49:13;31.87;;;12.10;;
11777;SDS011;5946;51.770;8.548;2023-04-25T04:51:39;37.17;;;12.13;;
11777;SDS011;5946;51.770;8.548;2023-04-25T04:54:09;26.73;;;10.67;;
11777;SDS011;5946;51.770;8.548;2023-04-25T04:56:35;34.57;;;10.97;;
11777;SDS011;5946;51.770;8.548;2023-04-25T04:59:01;37.63;;;11.43;;
11777;SDS011;5946;51.770;8.548;2023-04-25T05:01:27;36.07;;;9.97;;
11777;SDS011;5946;51.770;8.548;2023-04-25T05:03:57;30.70;;;10.17;;
11777;SDS011;5946;51.770;8.548;2023-04-25T05:06:28;40.10;;;11.30;;
11777;SDS011;5946;51.770;8.548;2023-04-25T05:08:55;33.83;;;10.07;;
11777;SDS011;5946;51.770;8.548;2023-04-25T05:11:21;34.03;;;10.67;;
11777;SDS011;5946;51.770;8.548;2023-04-25T05:13:48;32.37;;;9.60;;
11777;SDS011;5946;51.770;8.548;2023-04-25T05:16:13;32.23;;;9.73;;
11777;SDS011;5946;51.770;8.548;2023-04-25T05:18:39;34.37;;;10.17;;
11777;SDS011;5946;51.770;8.548;2023-04-25T05:21:06;38.23;;;9.87;;
11777;SDS011;5946;51.770;8.548;2023-04-25T05:23:32;35.83;;;9.70;;
11777;SDS011;5946;51.770;8.548;2023-04-25T05:25:58;35.50;;;8.73;;
11777;SDS011;5946;51.770;8.548;2023-04-25T05:28:24;31.73;;;9.53;;
11777;SDS011;5946;51.770;8.548;2023-04-25T05:30:50;32.30;;;10.00;;
11777;SDS011;5946;51.770;8.548;2023-04-25T05:33:17;32.63;;;9.17;;
11777;SDS011;5946;51.770;8.548;2023-04-25T05:35:43;30.87;;;8.13;;
11777;SDS011;5946;51.770;8.548;2023-04-25T05:38:09;35.23;;;8.77;;
11777;SDS011;5946;51.770;8.548;2023-04-25T05:40:35;32.20;;;8.37;;
11777;SDS011;5946;51.770;8.548;2023-04-25T05:43:01;27.17;;;7.83;;
11777;SDS011;5946;51.770;8.548;2023-04-25T05:45:27;23.37;;;8.27;;
11777;SDS011;5946;51.770;8.548;2023-04-25T05:47:53;29.23;;;8.03;;
11777;SDS011;5946;51.770;8.548;2023-04-25T05:50:20;26.17;;;7.40;;
11777;SDS011;5946;51.770;8.548;2023-04-25T05:52:46;26.97;;;7.23;;
11777;SDS011;5946;51.770;8.548;2023-04-25T05:55:12;25.77;;;7.77;;
11777;SDS011;5946;51.770;8.548;2023-04-25T05:57:38;27.10;;;8.10;;
11777;SDS011;5946;51.770;8.548;2023-04-25T06:00:07;25.97;;;7.27;;
11777;SDS011;5946;51.770;8.548;2023-04-25T06:02:34;22.87;;;6.73;;
11777;SDS011;5946;51.770;8.548;2023-04-25T06:05:00;24.53;;;7.33;;
11777;SDS011;5946;51.770;8.548;2023-04-25T06:07:28;20.17;;;6.83;;
11777;SDS011;5946;51.770;8.548;2023-04-25T06:09:57;25.30;;;7.10;;
11777;SDS011;5946;51.770;8.548;2023-04-25T06:12:24;20.57;;;7.27;;
11777;SDS011;5946;51.770;8.548;2023-04-25T06:14:50;25.80;;;7.00;;
11777;SDS011;5946;51.770;8.548;2023-04-25T06:17:16;29.67;;;7.70;;
11777;SDS011;5946;51.770;8.548;2023-04-25T06:19:42;26.23;;;6.70;;
11777;SDS011;5946;51.770;8.548;2023-04-25T06:22:08;21.03;;;6.87;;
11777;SDS011;5946;51.770;8.548;2023-04-25T06:24:34;23.30;;;7.17;;
11777;SDS011;5946;51.770;8.548;2023-04-25T06:27:00;27.93;;;7.10;;
11777;SDS011;5946;51.770;8.548;2023-04-25T06:29:26;30.90;;;7.47;;
11777;SDS011;5946;51.770;8.548;2023-04-25T06:31:52;22.53;;;7.33;;
11777;SDS011;5946;51.770;8.548;2023-04-25T06:34:18;20.63;;;7.60;;
11777;SDS011;5946;51.770;8.548;2023-04-25T06:36:44;19.60;;;6.27;;
11777;SDS011;5946;51.770;8.548;2023-04-25T06:39:10;24.03;;;6.33;;
11777;SDS011;5946;51.770;8.548;2023-04-25T06:41:36;18.20;;;5.80;;
11777;SDS011;5946;51.770;8.548;2023-04-25T06:44:02;20.47;;;5.93;;
11777;SDS011;5946;51.770;8.548;2023-04-25T06:46:28;18.10;;;5.67;;
11777;SDS011;5946;51.770;8.548;2023-04-25T06:48:54;19.90;;;6.47;;
11777;SDS011;5946;51.770;8.548;2023-04-25T06:51:20;13.57;;;4.93;;
11777;SDS011;5946;51.770;8.548;2023-04-25T06:53:46;16.27;;;5.20;;
11777;SDS011;5946;51.770;8.548;2023-04-25T06:56:12;17.27;;;4.70;;
11777;SDS011;5946;51.770;8.548;2023-04-25T06:58:38;19.40;;;4.70;;
11777;SDS011;5946;51.770;8.548;2023-04-25T07:01:04;20.20;;;5.33;;
11777;SDS011;5946;51.770;8.548;2023-04-25T07:03:30;16.10;;;4.50;;
11777;SDS011;5946;51.770;8.548;2023-04-25T07:05:56;20.83;;;5.33;;
11777;SDS011;5946;51.770;8.548;2023-04-25T07:08:22;17.43;;;4.80;;
11777;SDS011;5946;51.770;8.548;2023-04-25T07:10:48;17.47;;;5.17;;
11777;SDS011;5946;51.770;8.548;2023-04-25T07:13:14;24.57;;;5.37;;
11777;SDS011;5946;51.770;8.548;2023-04-25T07:15:40;18.73;;;5.00;;
11777;SDS011;5946;51.770;8.548;2023-04-25T07:18:06;19.60;;;4.53;;
11777;SDS011;5946;51.770;8.548;2023-04-25T07:20:32;21.60;;;4.63;;
11777;SDS011;5946;51.770;8.548;2023-04-25T07:22:58;22.63;;;5.53;;
11777;SDS011;5946;51.770;8.548;2023-04-25T07:25:24;16.10;;;4.23;;
11777;SDS011;5946;51.770;8.548;2023-04-25T07:27:50;15.43;;;4.00;;
11777;SDS011;5946;51.770;8.548;2023-04-25T07:30:16;21.40;;;4.33;;
11777;SDS011;5946;51.770;8.548;2023-04-25T07:32:42;17.93;;;4.27;;
11777;SDS011;5946;51.770;8.548;2023-04-25T07:35:08;18.67;;;4.20;;
11777;SDS011;5946;51.770;8.548;2023-04-25T07:37:35;16.03;;;4.10;;
11777;SDS011;5946;51.770;8.548;2023-04-25T07:40:02;15.33;;;3.70;;
11777;SDS011;5946;51.770;8.548;2023-04-25T07:42:29;14.97;;;3.60;;
11777;SDS011;5946;51.770;8.548;2023-04-25T07:44:54;14.67;;;3.43;;
11777;SDS011;5946;51.770;8.548;2023-04-25T07:47:20;16.87;;;4.47;;
11777;SDS011;5946;51.770;8.548;2023-04-25T07:49:46;13.53;;;4.00;;
11777;SDS011;5946;51.770;8.548;2023-04-25T07:52:13;15.93;;;4.07;;
11777;SDS011;5946;51.770;8.548;2023-04-25T07:54:39;13.13;;;3.80;;
11777;SDS011;5946;51.770;8.548;2023-04-25T07:57:05;17.47;;;3.93;;
11777;SDS011;5946;51.770;8.548;2023-04-25T07:59:31;13.97;;;4.07;;
11777;SDS011;5946;51.770;8.548;2023-04-25T08:01:57;20.53;;;4.30;;
11777;SDS011;5946;51.770;8.548;2023-04-25T08:04:23;15.03;;;3.53;;
11777;SDS011;5946;51.770;8.548;2023-04-25T08:06:50;19.27;;;3.67;;
11777;SDS011;5946;51.770;8.548;2023-04-25T08:09:17;12.97;;;3.10;;
11777;SDS011;5946;51.770;8.548;2023-04-25T08:11:43;16.17;;;3.73;;
11777;SDS011;5946;51.770;8.548;2023-04-25T08:14:09;13.83;;;3.87;;
11777;SDS011;5946;51.770;8.548;2023-04-25T08:16:35;14.83;;;3.17;;
11777;SDS011;5946;51.770;8.548;2023-04-25T08:19:01;13.07;;;3.47;;
11777;SDS011;5946;51.770;8.548;2023-04-25T08:21:27;14.93;;;3.27;;
11777;SDS011;5946;51.770;8.548;2023-04-25T08:23:53;14.87;;;2.83;;
11777;SDS011;5946;51.770;8.548;2023-04-25T08:26:19;12.10;;;3.03;;
11777;SDS011;5946;51.770;8.548;2023-04-25T08:28:45;16.93;;;3.53;;
11777;SDS011;5946;51.770;8.548;2023-04-25T08:31:11;12.77;;;3.10;;
11777;SDS011;5946;51.770;8.548;2023-04-25T08:33:38;11.60;;;3.53;;
11777;SDS011;5946;51.770;8.548;2023-04-25T08:36:03;8.00;;;2.50;;
11777;SDS011;5946;51.770;8.548;2023-04-25T08:38:30;15.60;;;2.67;;
11777;SDS011;5946;51.770;8.548;2023-04-25T08:40:56;10.13;;;2.93;;
11777;SDS011;5946;51.770;8.548;2023-04-25T08:43:22;10.47;;;2.90;;
11777;SDS011;5946;51.770;8.548;2023-04-25T08:45:49;14.50;;;3.60;;
11777;SDS011;5946;51.770;8.548;2023-04-25T08:48:16;12.43;;;2.87;;
11777;SDS011;5946;51.770;8.548;2023-04-25T08:50:49;8.87;;;2.47;;
11777;SDS011;5946;51.770;8.548;2023-04-25T08:53:16;11.43;;;3.07;;
11777;SDS011;5946;51.770;8.548;2023-04-25T08:55:45;11.13;;;2.63;;
11777;SDS011;5946;51.770;8.548;2023-04-25T08:58:11;10.77;;;2.63;;
11777;SDS011;5946;51.770;8.548;2023-04-25T09:00:37;10.33;;;3.03;;
11777;SDS011;5946;51.770;8.548;2023-04-25T09:03:03;7.93;;;2.93;;
11777;SDS011;5946;51.770;8.548;2023-04-25T09:05:29;11.03;;;2.60;;
11777;SDS011;5946;51.770;8.548;2023-04-25T09:07:55;7.97;;;2.37;;
11777;SDS011;5946;51.770;8.548;2023-04-25T09:10:21;8.73;;;2.53;;
11777;SDS011;5946;51.770;8.548;2023-04-25T09:13:03;8.30;;;2.53;;
11777;SDS011;5946;51.770;8.548;2023-04-25T09:15:30;13.23;;;3.27;;
11777;SDS011;5946;51.770;8.548;2023-04-25T09:17:56;12.10;;;2.73;;
11777;SDS011;5946;51.770;8.548;2023-04-25T09:20:22;11.17;;;2.53;;
11777;SDS011;5946;51.770;8.548;2023-04-25T09:22:49;14.33;;;2.70;;
11777;SDS011;5946;51.770;8.548;2023-04-25T09:25:15;11.97;;;2.70;;
11777;SDS011;5946;51.770;8.548;2023-04-25T09:27:51;9.80;;;2.40;;
11777;SDS011;5946;51.770;8.548;2023-04-25T09:30:17;7.73;;;2.27;;
11777;SDS011;5946;51.770;8.548;2023-04-25T09:32:43;9.50;;;2.80;;
11777;SDS011;5946;51.770;8.548;2023-04-25T09:35:10;10.17;;;2.30;;
11777;SDS011;5946;51.770;8.548;2023-04-25T09:37:36;12.43;;;2.63;;
11777;SDS011;5946;51.770;8.548;2023-04-25T09:40:04;6.77;;;2.50;;
11777;SDS011;5946;51.770;8.548;2023-04-25T09:42:31;10.73;;;2.87;;
11777;SDS011;5946;51.770;8.548;2023-04-25T09:44:59;9.07;;;2.47;;
11777;SDS011;5946;51.770;8.548;2023-04-25T09:47:29;11.73;;;2.90;;
11777;SDS011;5946;51.770;8.548;2023-04-25T09:49:55;9.77;;;2.47;;
11777;SDS011;5946;51.770;8.548;2023-04-25T09:52:22;6.57;;;1.80;;
11777;SDS011;5946;51.770;8.548;2023-04-25T09:54:48;8.37;;;2.23;;
11777;SDS011;5946;51.770;8.548;2023-04-25T09:57:16;7.07;;;2.20;;
11777;SDS011;5946;51.770;8.548;2023-04-25T09:59:46;7.23;;;2.70;;
11777;SDS011;5946;51.770;8.548;2023-04-25T10:02:13;6.57;;;1.90;;
11777;SDS011;5946;51.770;8.548;2023-04-25T10:04:39;9.37;;;2.33;;
11777;SDS011;5946;51.770;8.548;2023-04-25T10:07:06;9.10;;;2.23;;
11777;SDS011;5946;51.770;8.548;2023-04-25T10:09:33;9.20;;;2.37;;
11777;SDS011;5946;51.770;8.548;2023-04-25T10:11:59;7.57;;;2.10;;
11777;SDS011;5946;51.770;8.548;2023-04-25T10:14:25;5.17;;;1.87;;
11777;SDS011;5946;51.770;8.548;2023-04-25T10:16:51;8.73;;;2.20;;
11777;SDS011;5946;51.770;8.548;2023-04-25T10:19:18;6.13;;;2.00;;
11777;SDS011;5946;51.770;8.548;2023-04-25T10:21:51;6.57;;;2.17;;
11777;SDS011;5946;51.770;8.548;2023-04-25T10:24:18;4.00;;;2.23;;
11777;SDS011;5946;51.770;8.548;2023-04-25T10:26:45;8.67;;;2.67;;
11777;SDS011;5946;51.770;8.548;2023-04-25T10:29:11;7.77;;;2.30;;
11777;SDS011;5946;51.770;8.548;2023-04-25T10:31:46;8.67;;;1.87;;
11777;SDS011;5946;51.770;8.548;2023-04-25T10:34:12;5.93;;;1.93;;
11777;SDS011;5946;51.770;8.548;2023-04-25T10:36:38;8.37;;;2.20;;
11777;SDS011;5946;51.770;8.548;2023-04-25T10:39:05;4.67;;;2.10;;
11777;SDS011;5946;51.770;8.548;2023-04-25T10:41:47;5.17;;;1.97;;
11777;SDS011;5946;51.770;8.548;2023-04-25T10:44:13;6.73;;;2.03;;
11777;SDS011;5946;51.770;8.548;2023-04-25T10:46:40;10.23;;;2.60;;
11777;SDS011;5946;51.770;8.548;2023-04-25T10:49:06;6.53;;;2.10;;
11777;SDS011;5946;51.770;8.548;2023-04-25T10:51:35;6.57;;;2.00;;
11777;SDS011;5946;51.770;8.548;2023-04-25T10:56:28;12.53;;;2.80;;
11777;SDS011;5946;51.770;8.548;2023-04-25T10:59:04;6.20;;;1.97;;
11777;SDS011;5946;51.770;8.548;2023-04-25T11:01:35;5.63;;;2.20;;
11777;SDS011;5946;51.770;8.548;2023-04-25T11:04:01;8.07;;;2.10;;
11777;SDS011;5946;51.770;8.548;2023-04-25T11:06:34;7.30;;;2.40;;
11777;SDS011;5946;51.770;8.548;2023-04-25T11:09:03;6.60;;;2.20;;
11777;SDS011;5946;51.770;8.548;2023-04-25T11:11:36;6.07;;;2.03;;
11777;SDS011;5946;51.770;8.548;2023-04-25T11:14:02;4.27;;;1.70;;
11777;SDS011;5946;51.770;8.548;2023-04-25T11:16:28;7.87;;;2.30;;
11777;SDS011;5946;51.770;8.548;2023-04-25T11:18:56;4.40;;;2.00;;
11777;SDS011;5946;51.770;8.548;2023-04-25T11:21:23;6.00;;;1.67;;
11777;SDS011;5946;51.770;8.548;2023-04-25T11:23:49;7.43;;;2.20;;
11777;SDS011;5946;51.770;8.548;2023-04-25T11:26:15;4.90;;;1.93;;
11777;SDS011;5946;51.770;8.548;2023-04-25T11:28:44;7.10;;;1.80;;
11777;SDS011;5946;51.770;8.548;2023-04-25T11:31:10;7.77;;;2.23;;
11777;SDS011;5946;51.770;8.548;2023-04-25T11:33:37;6.87;;;1.90;;
11777;SDS011;5946;51.770;8.548;2023-04-25T11:36:03;8.70;;;2.10;;
11777;SDS011;5946;51.770;8.548;2023-04-25T11:38:29;8.03;;;1.90;;
11777;SDS011;5946;51.770;8.548;2023-04-25T11:40:55;4.60;;;1.70;;
11777;SDS011;5946;51.770;8.548;2023-04-25T11:43:21;6.77;;;2.20;;
11777;SDS011;5946;51.770;8.548;2023-04-25T11:45:50;6.13;;;2.27;;
11777;SDS011;5946;51.770;8.548;2023-04-25T11:48:17;6.87;;;2.20;;
11777;SDS011;5946;51.770;8.548;2023-04-25T11:50:43;4.20;;;1.97;;
11777;SDS011;5946;51.770;8.548;2023-04-25T11:53:09;6.37;;;2.00;;
11777;SDS011;5946;51.770;8.548;2023-04-25T11:55:35;5.70;;;1.70;;
11777;SDS011;5946;51.770;8.548;2023-04-25T11:58:02;4.03;;;1.73;;
11777;SDS011;5946;51.770;8.548;2023-04-25T12:00:29;4.37;;;1.73;;
11777;SDS011;5946;51.770;8.548;2023-04-25T12:02:55;4.87;;;1.90;;
11777;SDS011;5946;51.770;8.548;2023-04-25T12:05:26;6.27;;;1.70;;
11777;SDS011;5946;51.770;8.548;2023-04-25T12:07:53;7.53;;;1.80;;
11777;SDS011;5946;51.770;8.548;2023-04-25T12:10:19;7.33;;;2.20;;
11777;SDS011;5946;51.770;8.548;2023-04-25T12:12:46;5.30;;;2.00;;
11777;SDS011;5946;51.770;8.548;2023-04-25T12:15:13;7.97;;;1.80;;
11777;SDS011;5946;51.770;8.548;2023-04-25T12:17:45;7.53;;;2.07;;
11777;SDS011;5946;51.770;8.548;2023-04-25T12:20:12;5.53;;;1.90;;
11777;SDS011;5946;51.770;8.548;2023-04-25T12:22:40;5.60;;;1.87;;
11777;SDS011;5946;51.770;8.548;2023-04-25T12:25:09;5.50;;;2.00;;
11777;SDS011;5946;51.770;8.548;2023-04-25T12:27:35;5.70;;;1.50;;
11777;SDS011;5946;51.770;8.548;2023-04-25T12:30:01;4.23;;;1.73;;
11777;SDS011;5946;51.770;8.548;2023-04-25T12:32:28;4.97;;;1.90;;
11777;SDS011;5946;51.770;8.548;2023-04-25T12:34:54;5.20;;;1.87;;
11777;SDS011;5946;51.770;8.548;2023-04-25T12:37:20;7.60;;;2.07;;
11777;SDS011;5946;51.770;8.548;2023-04-25T12:39:46;6.67;;;2.27;;
11777;SDS011;5946;51.770;8.548;2023-04-25T12:42:12;7.03;;;2.07;;
11777;SDS011;5946;51.770;8.548;2023-04-25T12:44:38;6.63;;;2.40;;
11777;SDS011;5946;51.770;8.548;2023-04-25T12:47:05;5.67;;;1.67;;
11777;SDS011;5946;51.770;8.548;2023-04-25T12:49:31;7.03;;;2.00;;
11777;SDS011;5946;51.770;8.548;2023-04-25T12:51:58;3.57;;;1.60;;
11777;SDS011;5946;51.770;8.548;2023-04-25T12:54:24;6.07;;;1.77;;
11777;SDS011;5946;51.770;8.548;2023-04-25T12:56:50;3.53;;;1.90;;
11777;SDS011;5946;51.770;8.548;2023-04-25T12:59:17;9.13;;;2.17;;
11777;SDS011;5946;51.770;8.548;2023-04-25T13:01:45;7.73;;;2.30;;
11777;SDS011;5946;51.770;8.548;2023-04-25T13:04:11;4.77;;;2.13;;
11777;SDS011;5946;51.770;8.548;2023-04-25T13:06:36;5.17;;;2.23;;
11777;SDS011;5946;51.770;8.548;2023-04-25T13:09:03;8.10;;;2.20;;
11777;SDS011;5946;51.770;8.548;2023-04-25T13:11:29;7.80;;;2.40;;
11777;SDS011;5946;51.770;8.548;2023-04-25T13:13:55;8.23;;;2.30;;
11777;SDS011;5946;51.770;8.548;2023-04-25T13:16:21;4.67;;;1.87;;
11777;SDS011;5946;51.770;8.548;2023-04-25T13:18:47;6.37;;;1.83;;
11777;SDS011;5946;51.770;8.548;2023-04-25T13:21:13;4.33;;;2.07;;
11777;SDS011;5946;51.770;8.548;2023-04-25T13:23:39;8.70;;;1.90;;
11777;SDS011;5946;51.770;8.548;2023-04-25T13:26:07;5.20;;;1.60;;
11777;SDS011;5946;51.770;8.548;2023-04-25T13:28:33;5.33;;;1.80;;
11777;SDS011;5946;51.770;8.548;2023-04-25T13:30:59;6.47;;;2.00;;
11777;SDS011;5946;51.770;8.548;2023-04-25T13:33:25;4.97;;;1.50;;
11777;SDS011;5946;51.770;8.548;2023-04-25T13:35:51;4.40;;;1.60;;
11777;SDS011;5946;51.770;8.548;2023-04-25T13:38:22;1.83;;;1.27;;
11777;SDS011;5946;51.770;8.548;2023-04-25T13:40:49;2.10;;;1.20;;
11777;SDS011;5946;51.770;8.548;2023-04-25T13:43:18;4.70;;;1.30;;
11777;SDS011;5946;51.770;8.548;2023-04-25T13:45:45;3.13;;;1.20;;
11777;SDS011;5946;51.770;8.548;2023-04-25T13:48:11;1.57;;;0.90;;
11777;SDS011;5946;51.770;8.548;2023-04-25T13:50:37;4.27;;;1.40;;
11777;SDS011;5946;51.770;8.548;2023-04-25T13:53:03;3.73;;;1.27;;
11777;SDS011;5946;51.770;8.548;2023-04-25T13:55:29;5.17;;;1.17;;
11777;SDS011;5946;51.770;8.548;2023-04-25T13:57:55;2.30;;;0.90;;
11777;SDS011;5946;51.770;8.548;2023-04-25T14:00:21;3.90;;;1.30;;
11777;SDS011;5946;51.770;8.548;2023-04-25T14:02:47;2.37;;;1.20;;
11777;SDS011;5946;51.770;8.548;2023-04-25T14:05:13;2.40;;;1.10;;
11777;SDS011;5946;51.770;8.548;2023-04-25T14:07:39;4.60;;;1.30;;
11777;SDS011;5946;51.770;8.548;2023-04-25T14:10:05;2.60;;;1.10;;
11777;SDS011;5946;51.770;8.548;2023-04-25T14:12:32;4.37;;;1.33;;
11777;SDS011;5946;51.770;8.548;2023-04-25T14:14:58;4.50;;;1.63;;
11777;SDS011;5946;51.770;8.548;2023-04-25T14:17:24;4.93;;;1.73;;
11777;SDS011;5946;51.770;8.548;2023-04-25T14:19:50;5.87;;;1.47;;
11777;SDS011;5946;51.770;8.548;2023-04-25T14:22:16;5.43;;;1.70;;
11777;SDS011;5946;51.770;8.548;2023-04-25T14:24:42;4.83;;;1.40;;
11777;SDS011;5946;51.770;8.548;2023-04-25T14:27:08;5.80;;;1.47;;
11777;SDS011;5946;51.770;8.548;2023-04-25T14:29:34;3.87;;;1.30;;
11777;SDS011;5946;51.770;8.548;2023-04-25T14:32:00;2.90;;;1.40;;
11777;SDS011;5946;51.770;8.548;2023-04-25T14:34:27;3.13;;;1.40;;
11777;SDS011;5946;51.770;8.548;2023-04-25T14:36:52;3.17;;;1.40;;
11777;SDS011;5946;51.770;8.548;2023-04-25T14:39:18;2.73;;;1.47;;
11777;SDS011;5946;51.770;8.548;2023-04-25T14:41:45;3.93;;;1.53;;
11777;SDS011;5946;51.770;8.548;2023-04-25T14:44:10;4.87;;;1.83;;
11777;SDS011;5946;51.770;8.548;2023-04-25T14:46:36;4.67;;;1.60;;